CheckWX is a tool to help pilots better visualize weather data.  It is not intended as a substitute for an official pre-flight weather briefing.

14:43:01 UTC

0S9 METAR
Jefferson County International Airport
Port Townsend, Washington, USA
Current

8 mins ago

K0S9 201435Z AUTO 05004KT 10SM OVC011 12/10 A2976 RMK AO2
Observed
May-20 @ 14:35 UTC
Wind
  • 050° at 4 KTS
Visibility
10 SM
Flight Rules
MVFR
Cloud Levels
  • Overcast at 1,100' AGL
Temperature
12°C / 54°F
Dewpoint
10°C / 50°F
Humidity
88%
Altimeter
29.76" Hg
Pressure
1007.82 hPa
Previous

28 mins ago

K0S9 201415Z AUTO 05005KT 10SM OVC013 12/10 A2976 RMK AO2
Observed
May-20 @ 14:15 UTC
Wind
  • 050° at 5 KTS
Visibility
10 SM
Flight Rules
MVFR
Cloud Levels
  • Overcast at 1,300' AGL
Temperature
12°C / 54°F
Dewpoint
10°C / 50°F
Humidity
88%
Altimeter
29.76" Hg
Pressure
1007.82 hPa
Previous

48 mins ago

K0S9 201355Z AUTO 05004KT 10SM OVC013 12/10 A2975 RMK AO2
Observed
May-20 @ 13:55 UTC
Wind
  • 050° at 4 KTS
Visibility
10 SM
Flight Rules
MVFR
Cloud Levels
  • Overcast at 1,300' AGL
Temperature
12°C / 54°F
Dewpoint
10°C / 50°F
Humidity
88%
Altimeter
29.75" Hg
Pressure
1007.42 hPa